Zad Elkhir — 3FFX2 — position and weather

sailwx.info

Track history (hours):
 
Tides and Currents Weather Stations Pressure Air Temp Water Temp Dewpoint Dewpoint Depression Visibility Wind Speed Wind Dir Waves Ship Positions

Zad Elkhir

Last reported at 2018-Aug-15 14:38 UTC. Time now 2018-Aug-19 22:54 UTC.
Position N 35°00' E 031°21'.

Length 113 m; draft 4 m.

Type: Cargo ship. MMSI: 304010676.

Date/timePositionNaut miles runAvg speedWind from/ knotsBaromVisibWave heightAir tempDewpointWater temp
2018-Aug-15 14:38N 35°00' E 031°21'20 1.1
2018-Aug-14 20:40N 35°18' E 031°08'0 1.9
2018-Aug-14 20:25N 35°18' E 031°08'  
2018-Aug-07 15:12N 36°32' E 014°27'211.8
2018-Aug-07 15:01N 36°32' E 014°25'611.5
2018-Aug-07 14:30N 36°36' E 014°19'611.2
2018-Aug-07 14:00N 36°39' E 014°13'611.6
2018-Aug-07 13:30N 36°41' E 014°06'611.3
2018-Aug-07 12:57N 36°44' E 013°60'511.6
2018-Aug-07 12:30N 36°45' E 013°53'611.3
2018-Aug-07 12:00N 36°49' E 013°49'611.5
2018-Aug-07 11:30N 36°52' E 013°42'611.8
2018-Aug-07 11:00N 36°55' E 013°36'611.7
2018-Aug-07 10:30N 36°58' E 013°29'611.6
2018-Aug-07 10:00N 37°00' E 013°23'49912.1
2018-Aug-05 16:44N 37°01' E 002°58'312.2
2018-Aug-05 16:30N 37°00' E 002°54'1512.6
2018-Aug-05 15:19N 36°58' E 002°36'412.8
2018-Aug-05 15:00N 36°57' E 002°31'  
Track history (hours):
 
Tides and Currents Weather Stations Pressure Air Temp Water Temp Dewpoint Dewpoint Depression Visibility Wind Speed Wind Dir Waves Ship Positions

Zad Elkhir

Last reported at 2018-Aug-15 14:38 UTC. Time now 2018-Aug-19 22:54 UTC.
Position N 35°00' E 031°21'.

Length 113 m; draft 4 m.

Type: Cargo ship. MMSI: 304010676.

Date/timePositionNaut miles runAvg speedWind from/ knotsBaromVisibWave heightAir tempDewpointWater temp
2018-Aug-15 14:38N 35°00' E 031°21'20 1.1
2018-Aug-14 20:40N 35°18' E 031°08'0 1.9
2018-Aug-14 20:25N 35°18' E 031°08'  
2018-Aug-07 15:12N 36°32' E 014°27'211.8
2018-Aug-07 15:01N 36°32' E 014°25'611.5
2018-Aug-07 14:30N 36°36' E 014°19'611.2
2018-Aug-07 14:00N 36°39' E 014°13'611.6
2018-Aug-07 13:30N 36°41' E 014°06'611.3
2018-Aug-07 12:57N 36°44' E 013°60'511.6
2018-Aug-07 12:30N 36°45' E 013°53'611.3
2018-Aug-07 12:00N 36°49' E 013°49'611.5
2018-Aug-07 11:30N 36°52' E 013°42'611.8
2018-Aug-07 11:00N 36°55' E 013°36'611.7
2018-Aug-07 10:30N 36°58' E 013°29'611.6
2018-Aug-07 10:00N 37°00' E 013°23'49912.1
2018-Aug-05 16:44N 37°01' E 002°58'312.2
2018-Aug-05 16:30N 37°00' E 002°54'1512.6
2018-Aug-05 15:19N 36°58' E 002°36'412.8
2018-Aug-05 15:00N 36°57' E 002°31'  

Dump ship's entire track history